Time;durP1;ratioP1;P1;durP2;ratioP2;P2;SDS_P1;SDS_P2;PMS_P1;PMS_P2;Temp;Humidity;BMP_temperature;BMP_pressure;BME280_temperature;BME280_humidity;BME280_pressure;Samples;Min_cycle;Max_cycle;Signal;HPM_P1;HPM_P2
2023/09/11 00:02:17;;;;;;;432.80;408.63;;;19.10;99.90;;;;;;5033117;28;20526;-71
2023/09/11 00:04:44;;;;;;;462.97;436.80;;;19.00;99.90;;;;;;5033411;28;20449;-70
2023/09/11 00:07:13;;;;;;;475.97;448.10;;;19.00;99.90;;;;;;5033333;28;20516;-71
2023/09/11 00:09:40;;;;;;;525.67;493.57;;;19.00;99.90;;;;;;5032982;28;20824;-70
2023/09/11 00:12:07;;;;;;;561.20;526.50;;;19.10;99.90;;;;;;5032920;28;20459;-70
2023/09/11 00:14:34;;;;;;;554.97;521.10;;;19.10;99.90;;;;;;5033055;28;20449;-70
2023/09/11 00:17:01;;;;;;;566.97;531.83;;;19.20;99.90;;;;;;5033097;28;20483;-70
2023/09/11 00:19:27;;;;;;;578.77;543.70;;;19.20;99.90;;;;;;5032896;28;20449;-71
2023/09/11 00:21:54;;;;;;;592.77;555.67;;;19.20;99.90;;;;;;5032970;28;20452;-70
2023/09/11 00:24:22;;;;;;;550.80;518.23;;;19.20;99.90;;;;;;5032933;28;20961;-71
2023/09/11 00:26:49;;;;;;;526.80;496.53;;;19.20;99.90;;;;;;5032886;28;20454;-71
2023/09/11 00:29:16;;;;;;;532.07;502.07;;;19.10;99.90;;;;;;5032372;28;20449;-71
2023/09/11 00:31:43;;;;;;;583.07;548.57;;;19.00;99.90;;;;;;5032591;28;20475;-70
2023/09/11 00:34:09;;;;;;;650.70;611.63;;;18.90;99.90;;;;;;5032874;28;20459;-70
2023/09/11 00:36:36;;;;;;;588.27;553.97;;;18.90;99.90;;;;;;5032711;28;20457;-70
2023/09/11 00:39:03;;;;;;;585.03;551.13;;;18.80;99.90;;;;;;5032351;28;20450;-71
2023/09/11 00:41:31;;;;;;;719.53;675.03;;;18.70;99.90;;;;;;5032475;28;20944;-70
2023/09/11 00:43:58;;;;;;;650.13;610.90;;;18.70;99.90;;;;;;5032370;28;20451;-71
2023/09/11 00:46:25;;;;;;;757.83;709.53;;;18.70;99.90;;;;;;5032706;28;20467;-71
2023/09/11 00:48:54;;;;;;;849.43;793.33;;;18.70;99.90;;;;;;5032439;28;20485;-71
2023/09/11 00:51:21;;;;;;;872.20;815.07;;;18.80;99.90;;;;;;5032637;28;20677;-70
2023/09/11 00:53:49;;;;;;;863.10;809.70;;;18.80;99.90;;;;;;5032449;28;20450;-71
2023/09/11 00:56:16;;;;;;;900.97;842.23;;;18.80;99.90;;;;;;5032435;28;20462;-70
2023/09/11 00:58:45;;;;;;;953.53;887.37;;;18.80;99.90;;;;;;5032066;28;20480;-70
2023/09/11 01:01:13;;;;;;;968.37;898.83;;;18.80;99.90;;;;;;5032530;28;20456;-70
2023/09/11 01:03:40;;;;;;;967.00;896.07;;;18.90;99.90;;;;;;5032184;28;20462;-71
2023/09/11 01:06:08;;;;;;;973.80;902.77;;;19.00;99.90;;;;;;5032303;28;20451;-70
2023/09/11 01:08:35;;;;;;;985.93;912.67;;;19.00;99.90;;;;;;5031918;28;20449;-71
2023/09/11 01:11:01;;;;;;;966.87;898.47;;;19.00;99.90;;;;;;5031935;28;20988;-70
2023/09/11 01:13:29;;;;;;;971.27;902.80;;;19.00;99.90;;;;;;5032343;28;20459;-71
2023/09/11 01:16:11;;;;;;;955.20;889.80;;;19.00;99.90;;;;;;5032316;28;20453;-70
2023/09/11 01:18:47;;;;;;;963.97;898.27;;;18.90;99.90;;;;;;5031914;28;20489;-70
2023/09/11 01:21:42;;;;;;;944.07;879.87;;;18.90;99.90;;;;;;5032390;28;20436;-71
2023/09/11 01:24:25;;;;;;;933.70;870.67;;;18.90;99.90;;;;;;5032374;28;20456;-70
2023/09/11 01:27:27;;;;;;;939.00;875.53;;;18.90;99.90;;;;;;5032344;28;20453;-71
2023/09/11 01:29:58;;;;;;;940.03;876.67;;;18.90;99.90;;;;;;5000953;28;20827;-71
2023/09/11 01:32:26;;;;;;;921.67;861.87;;;18.90;99.90;;;;;;5032229;28;20458;-70
2023/09/11 01:34:53;;;;;;;950.73;887.30;;;18.90;99.90;;;;;;5032082;28;20447;-70
2023/09/11 01:37:20;;;;;;;944.33;881.60;;;18.80;99.90;;;;;;5031829;28;20482;-70
2023/09/11 01:39:48;;;;;;;935.53;874.23;;;18.80;99.90;;;;;;5031751;28;20450;-70
2023/09/11 01:42:21;;;;;;;941.83;880.93;;;18.80;99.90;;;;;;5031921;28;20461;-70
2023/09/11 01:44:50;;;;;;;922.60;864.13;;;18.70;99.90;;;;;;5032103;28;20454;-70
2023/09/11 01:47:22;;;;;;;916.90;859.00;;;18.70;99.90;;;;;;5032155;28;20457;-70
2023/09/11 01:49:50;;;;;;;908.53;850.97;;;18.60;99.90;;;;;;5031876;28;20455;-70
2023/09/11 01:52:18;;;;;;;924.20;863.63;;;18.60;99.90;;;;;;5031915;28;20848;-70
2023/09/11 01:54:45;;;;;;;946.77;880.70;;;18.50;99.90;;;;;;5032138;28;20451;-70
2023/09/11 01:57:11;;;;;;;975.53;905.73;;;18.50;99.90;;;;;;5031625;28;20460;-70
2023/09/11 01:59:38;;;;;;;973.57;902.13;;;18.50;99.90;;;;;;5031652;28;20499;-70
2023/09/11 02:02:06;;;;;;;962.03;888.60;;;18.40;99.90;;;;;;5031620;28;20450;-68
2023/09/11 02:04:34;;;;;;;967.73;895.77;;;18.40;99.90;;;;;;5031761;28;20545;-68
2023/09/11 02:07:01;;;;;;;917.20;858.40;;;18.40;99.90;;;;;;5031699;28;20458;-68
2023/09/11 02:09:28;;;;;;;940.43;876.93;;;18.20;99.90;;;;;;5031317;28;20450;-68
2023/09/11 02:11:55;;;;;;;952.50;885.93;;;18.10;99.90;;;;;;5031491;28;20467;-68
2023/09/11 02:14:22;;;;;;;944.83;876.23;;;18.10;99.90;;;;;;5031737;28;20451;-68
2023/09/11 02:16:49;;;;;;;935.60;867.50;;;18.10;99.90;;;;;;5031693;28;20452;-68
2023/09/11 02:19:15;;;;;;;922.27;855.43;;;18.10;99.90;;;;;;5031728;28;20510;-68
2023/09/11 02:21:43;;;;;;;944.10;873.83;;;18.10;99.90;;;;;;5035086;28;20446;-68
2023/09/11 02:24:10;;;;;;;941.60;870.80;;;18.10;99.90;;;;;;5035088;28;20545;-68
2023/09/11 02:26:37;;;;;;;946.33;873.20;;;18.10;99.90;;;;;;5035242;28;20457;-68
2023/09/11 02:29:04;;;;;;;929.77;858.27;;;18.10;99.90;;;;;;5034890;28;20473;-68
2023/09/11 02:31:31;;;;;;;938.77;866.07;;;18.20;99.90;;;;;;5034917;28;20452;-68
2023/09/11 02:33:57;;;;;;;946.90;873.40;;;18.00;99.90;;;;;;5035010;28;20449;-68
2023/09/11 02:36:24;;;;;;;949.53;877.43;;;18.00;99.90;;;;;;5034830;28;20450;-68
2023/09/11 02:38:52;;;;;;;946.23;874.33;;;18.00;99.90;;;;;;5034793;28;20599;-68
2023/09/11 02:41:19;;;;;;;938.17;867.97;;;18.00;99.90;;;;;;5034914;28;20453;-68
2023/09/11 02:43:46;;;;;;;945.13;873.93;;;18.00;99.90;;;;;;5034868;28;20540;-68
2023/09/11 02:46:13;;;;;;;949.07;875.67;;;18.00;99.90;;;;;;5034744;28;20439;-68
2023/09/11 02:48:45;;;;;;;946.27;872.23;;;18.00;99.90;;;;;;5034484;28;20782;-68
2023/09/11 02:51:12;;;;;;;948.60;875.03;;;18.00;99.90;;;;;;5034757;28;20459;-68
2023/09/11 02:53:39;;;;;;;944.77;872.47;;;18.00;99.90;;;;;;5034816;28;20454;-68
2023/09/11 02:56:07;;;;;;;935.10;865.50;;;18.00;99.90;;;;;;5034672;28;20456;-68
2023/09/11 02:58:34;;;;;;;946.03;874.47;;;18.00;99.90;;;;;;5034349;28;20483;-68
2023/09/11 03:01:02;;;;;;;950.40;878.83;;;17.90;99.90;;;;;;5034317;28;20975;-68
2023/09/11 03:03:29;;;;;;;946.03;874.43;;;17.90;99.90;;;;;;5034328;28;20851;-68
2023/09/11 03:05:57;;;;;;;946.10;874.13;;;17.80;99.90;;;;;;5034258;28;20460;-68
2023/09/11 03:08:24;;;;;;;957.57;883.73;;;17.80;99.90;;;;;;5034137;28;20458;-68
2023/09/11 03:10:51;;;;;;;964.70;888.83;;;17.80;99.90;;;;;;5033983;28;20457;-68
2023/09/11 03:13:19;;;;;;;965.23;887.43;;;17.80;99.90;;;;;;5034207;28;20449;-68
2023/09/11 03:15:45;;;;;;;966.30;887.80;;;17.70;99.90;;;;;;5034224;28;20453;-68
2023/09/11 03:18:13;;;;;;;973.80;891.50;;;17.70;99.90;;;;;;5033786;28;20488;-68
2023/09/11 03:20:40;;;;;;;968.10;886.00;;;17.80;99.90;;;;;;5034104;28;20480;-68
2023/09/11 03:23:07;;;;;;;976.13;893.53;;;17.80;99.90;;;;;;5033922;28;20460;-68
2023/09/11 03:25:34;;;;;;;975.90;893.73;;;17.70;99.90;;;;;;5034040;28;20449;-68
2023/09/11 03:28:01;;;;;;;989.47;904.50;;;17.70;99.90;;;;;;5033943;28;20446;-68
2023/09/11 03:30:30;;;;;;;977.60;892.67;;;17.60;99.90;;;;;;5033122;28;20507;-69
2023/09/11 03:32:57;;;;;;;975.60;892.10;;;17.60;99.90;;;;;;5033339;28;20465;-68
2023/09/11 03:35:24;;;;;;;979.53;893.53;;;17.60;99.90;;;;;;5033989;28;20444;-68
2023/09/11 03:37:51;;;;;;;981.77;893.27;;;17.50;99.90;;;;;;5033716;28;20517;-68
2023/09/11 03:40:20;;;;;;;979.20;890.30;;;17.60;99.90;;;;;;5033516;28;20457;-68
2023/09/11 03:42:47;;;;;;;992.33;902.63;;;17.60;99.90;;;;;;5033714;28;20464;-68
2023/09/11 03:45:13;;;;;;;981.10;891.40;;;17.60;99.90;;;;;;5033699;28;20828;-68
2023/09/11 03:47:41;;;;;;;987.93;898.27;;;17.60;99.90;;;;;;5033697;28;20457;-68
2023/09/11 03:50:09;;;;;;;979.60;893.20;;;17.50;99.90;;;;;;5033488;28;20464;-68
2023/09/11 03:52:36;;;;;;;983.00;900.80;;;17.40;99.90;;;;;;5033634;28;20820;-68
2023/09/11 03:55:03;;;;;;;969.87;890.70;;;17.40;99.90;;;;;;5033451;28;20423;-68
2023/09/11 03:57:30;;;;;;;964.73;886.70;;;17.30;99.90;;;;;;5033369;28;20511;-68
2023/09/11 03:59:56;;;;;;;966.97;882.07;;;17.20;99.90;;;;;;5033010;28;20492;-68
2023/09/11 04:02:23;;;;;;;964.10;876.43;;;17.20;99.90;;;;;;5033204;28;20453;-68
2023/09/11 04:04:51;;;;;;;972.10;881.80;;;17.20;99.90;;;;;;5033245;28;20454;-68
2023/09/11 04:07:18;;;;;;;967.63;876.63;;;17.40;99.90;;;;;;5033326;28;20449;-68
2023/09/11 04:09:45;;;;;;;962.03;870.37;;;17.40;99.90;;;;;;5032777;28;20452;-68
2023/09/11 04:12:16;;;;;;;971.67;881.47;;;17.40;99.90;;;;;;5032928;28;20965;-68
2023/09/11 04:14:43;;;;;;;973.80;883.80;;;17.40;99.90;;;;;;5033040;28;20999;-68
2023/09/11 04:17:11;;;;;;;966.27;876.30;;;17.40;99.90;;;;;;5033176;28;20452;-68
2023/09/11 04:19:38;;;;;;;945.27;856.10;;;17.50;99.90;;;;;;5032831;28;20481;-68
2023/09/11 04:22:06;;;;;;;962.07;873.77;;;17.50;99.90;;;;;;5032938;28;20457;-68
2023/09/11 04:24:33;;;;;;;953.27;868.70;;;17.50;99.90;;;;;;5032852;28;20497;-68
2023/09/11 04:27:00;;;;;;;949.10;868.00;;;17.40;99.90;;;;;;5032757;28;20456;-68
2023/09/11 04:29:29;;;;;;;960.40;882.30;;;17.30;99.90;;;;;;5032686;28;20451;-68
2023/09/11 04:31:56;;;;;;;957.60;880.17;;;17.10;99.90;;;;;;5032776;28;20553;-68
2023/09/11 04:34:22;;;;;;;952.03;875.17;;;17.00;99.90;;;;;;5032735;28;20458;-68
2023/09/11 04:36:49;;;;;;;947.27;869.00;;;17.00;99.90;;;;;;5032711;28;20456;-68
2023/09/11 04:39:17;;;;;;;946.10;865.60;;;16.90;99.90;;;;;;5032297;28;20473;-68
2023/09/11 04:41:44;;;;;;;938.90;855.00;;;16.90;99.90;;;;;;5032722;28;20453;-68
2023/09/11 04:44:11;;;;;;;954.17;868.57;;;17.00;99.90;;;;;;5032591;28;20449;-68
2023/09/11 04:46:39;;;;;;;936.37;846.30;;;17.00;99.90;;;;;;5032495;28;20962;-68
2023/09/11 04:49:05;;;;;;;946.87;856.17;;;17.10;99.90;;;;;;5032346;28;20445;-68
2023/09/11 04:51:32;;;;;;;931.37;843.37;;;17.10;99.90;;;;;;5032470;28;20456;-68
2023/09/11 04:53:59;;;;;;;945.13;856.93;;;17.10;99.90;;;;;;5032241;28;20452;-68
2023/09/11 04:56:27;;;;;;;946.57;858.60;;;17.10;99.90;;;;;;5032753;28;20455;-68
2023/09/11 04:58:54;;;;;;;942.00;856.80;;;17.20;99.90;;;;;;5032311;28;20490;-68
2023/09/11 05:01:21;;;;;;;931.20;847.70;;;17.10;99.90;;;;;;5032247;28;20801;-68
2023/09/11 05:03:47;;;;;;;940.93;856.53;;;17.10;99.90;;;;;;5032198;28;20456;-68
2023/09/11 05:06:15;;;;;;;907.47;824.17;;;17.10;99.90;;;;;;5032303;28;20830;-68
2023/09/11 05:08:42;;;;;;;921.07;835.87;;;17.10;99.90;;;;;;5032167;28;20544;-68
2023/09/11 05:11:09;;;;;;;928.37;843.20;;;17.10;99.90;;;;;;5032133;28;20468;-68
2023/09/11 05:13:37;;;;;;;928.57;845.50;;;17.20;99.90;;;;;;5032016;28;20454;-68
2023/09/11 05:16:04;;;;;;;923.97;842.07;;;17.20;99.90;;;;;;5032155;28;20445;-68
2023/09/11 05:18:30;;;;;;;932.27;850.80;;;17.20;99.90;;;;;;5031714;28;20480;-68
2023/09/11 05:20:57;;;;;;;922.77;840.60;;;17.20;99.90;;;;;;5032107;28;20551;-68
2023/09/11 05:23:24;;;;;;;934.37;851.80;;;17.30;99.90;;;;;;5031876;28;20452;-68
2023/09/11 05:25:51;;;;;;;926.17;844.63;;;17.30;99.90;;;;;;5032058;28;20951;-68
2023/09/11 05:28:17;;;;;;;923.87;844.47;;;17.30;99.90;;;;;;5032134;28;20427;-68
2023/09/11 05:30:46;;;;;;;913.23;835.13;;;17.30;99.90;;;;;;5032091;28;20454;-68
2023/09/11 05:33:12;;;;;;;917.37;839.00;;;17.40;99.90;;;;;;5032158;28;20932;-68
2023/09/11 05:35:39;;;;;;;921.23;842.67;;;17.50;99.90;;;;;;5032114;28;20449;-68
2023/09/11 05:38:06;;;;;;;917.93;838.60;;;17.50;99.90;;;;;;5031660;28;20455;-68
2023/09/11 05:40:33;;;;;;;926.43;848.17;;;17.60;99.90;;;;;;5031675;28;20555;-68
2023/09/11 05:42:59;;;;;;;921.60;844.30;;;17.60;99.90;;;;;;5032053;28;20450;-68
2023/09/11 05:45:26;;;;;;;916.13;838.47;;;17.70;99.90;;;;;;5031961;28;20450;-68
2023/09/11 05:47:54;;;;;;;908.87;833.20;;;17.70;99.90;;;;;;5032019;28;20459;-68
2023/09/11 05:50:21;;;;;;;920.00;844.17;;;17.80;99.90;;;;;;5031506;28;20459;-68
2023/09/11 05:52:48;;;;;;;906.00;830.90;;;17.90;99.90;;;;;;5038885;28;20451;-68
2023/09/11 05:55:15;;;;;;;903.90;830.37;;;18.00;99.90;;;;;;5054101;28;20448;-68
2023/09/11 05:57:42;;;;;;;896.93;823.27;;;18.10;99.90;;;;;;5055498;28;20460;-69
2023/09/11 06:00:12;;;;;;;894.37;821.97;;;18.20;99.90;;;;;;5054677;28;20478;-69
2023/09/11 06:02:39;;;;;;;885.13;815.00;;;18.30;99.90;;;;;;5055251;28;20453;-69
2023/09/11 06:05:08;;;;;;;876.57;805.93;;;18.40;99.90;;;;;;5055261;28;20452;-70
2023/09/11 06:07:35;;;;;;;875.30;806.20;;;18.50;99.90;;;;;;5055047;28;20453;-70
2023/09/11 06:10:01;;;;;;;879.30;811.33;;;18.60;99.90;;;;;;5055335;28;20450;-69
2023/09/11 06:12:30;;;;;;;866.50;800.13;;;18.70;99.90;;;;;;5055453;28;20463;-70
2023/09/11 06:14:57;;;;;;;866.73;800.27;;;18.80;99.90;;;;;;5055663;28;20538;-69
2023/09/11 06:17:23;;;;;;;870.77;807.57;;;18.90;99.90;;;;;;5055243;28;20453;-69
2023/09/11 06:19:50;;;;;;;853.37;792.57;;;19.00;99.90;;;;;;5054822;28;20482;-70
2023/09/11 06:22:18;;;;;;;865.73;804.93;;;19.10;99.90;;;;;;5055094;28;20448;-69
2023/09/11 06:24:45;;;;;;;845.47;787.47;;;19.20;99.90;;;;;;5055072;28;20449;-69
2023/09/11 06:27:13;;;;;;;824.57;769.67;;;19.30;99.90;;;;;;5055075;28;20458;-70
2023/09/11 06:29:40;;;;;;;810.60;757.00;;;19.40;99.90;;;;;;5054575;28;20449;-69
2023/09/11 06:32:07;;;;;;;797.73;746.40;;;19.50;99.90;;;;;;5054809;28;20488;-69
2023/09/11 06:34:34;;;;;;;772.77;723.80;;;19.50;99.90;;;;;;5054870;28;20453;-69
2023/09/11 06:37:01;;;;;;;773.90;726.90;;;19.60;99.90;;;;;;5055124;28;20813;-71
2023/09/11 06:39:29;;;;;;;756.40;712.03;;;19.70;99.90;;;;;;5054608;28;20474;-71
2023/09/11 06:41:56;;;;;;;754.50;710.93;;;19.80;99.90;;;;;;5054509;28;20994;-71
2023/09/11 06:44:23;;;;;;;752.93;710.63;;;19.90;99.90;;;;;;5055167;28;20423;-71
2023/09/11 06:46:50;;;;;;;735.27;697.10;;;19.90;99.90;;;;;;5053005;28;20454;-72
2023/09/11 06:49:17;;;;;;;720.40;684.13;;;20.00;99.90;;;;;;5054148;28;20446;-71
2023/09/11 06:51:43;;;;;;;721.53;685.77;;;20.00;99.90;;;;;;5054424;28;20452;-71
2023/09/11 06:54:12;;;;;;;693.87;659.87;;;20.10;99.90;;;;;;5054156;28;20453;-71
2023/09/11 06:56:42;;;;;;;620.87;591.97;;;20.20;99.90;;;;;;5054166;28;20449;-71
2023/09/11 06:59:09;;;;;;;652.03;621.43;;;20.30;99.90;;;;;;5053849;28;20968;-71
2023/09/11 07:01:39;;;;;;;571.17;545.80;;;20.30;99.90;;;;;;5054018;28;20453;-71
2023/09/11 07:04:06;;;;;;;477.53;457.20;;;20.50;99.90;;;;;;5053993;28;20451;-71
2023/09/11 07:06:33;;;;;;;468.63;449.17;;;20.50;99.90;;;;;;5053690;28;20498;-71
2023/09/11 07:09:00;;;;;;;379.07;363.93;;;20.70;99.90;;;;;;5053607;28;20457;-71
2023/09/11 07:11:27;;;;;;;298.03;286.93;;;20.80;99.90;;;;;;5053715;28;20466;-71
2023/09/11 07:13:55;;;;;;;325.87;313.40;;;20.90;99.90;;;;;;5053518;28;20461;-71
2023/09/11 07:16:22;;;;;;;301.23;290.13;;;21.00;99.90;;;;;;5053825;28;20447;-71
2023/09/11 07:18:49;;;;;;;226.60;217.80;;;21.10;99.90;;;;;;5053781;28;20458;-71
2023/09/11 07:21:16;;;;;;;142.00;136.43;;;21.20;99.90;;;;;;5053676;28;20949;-71
2023/09/11 07:23:42;;;;;;;89.83;84.90;;;21.30;99.90;;;;;;5054206;28;20508;-71
2023/09/11 07:26:09;;;;;;;107.13;102.17;;;21.40;99.90;;;;;;5053962;28;20450;-71
2023/09/11 07:28:56;;;;;;;99.70;94.63;;;21.50;99.90;;;;;;5051919;28;20447;-68
2023/09/11 07:31:22;;;;;;;67.93;64.10;;;21.60;99.90;;;;;;5053968;28;20456;-69
2023/09/11 07:33:50;;;;;;;54.03;50.87;;;21.70;99.90;;;;;;5053905;28;20443;-68
2023/09/11 07:36:18;;;;;;;32.93;30.30;;;21.80;99.90;;;;;;5053699;28;20445;-68
2023/09/11 07:38:45;;;;;;;33.20;30.60;;;21.90;99.90;;;;;;5053193;28;20448;-70
2023/09/11 07:41:14;;;;;;;30.20;28.00;;;22.00;99.90;;;;;;5053462;28;20483;-70
2023/09/11 07:43:40;;;;;;;29.20;24.23;;;22.10;99.90;;;;;;5053756;28;20453;-70
2023/09/11 07:46:09;;;;;;;30.87;28.07;;;22.20;99.90;;;;;;5053680;28;20448;-70
2023/09/11 07:48:36;;;;;;;25.97;21.23;;;22.30;99.90;;;;;;5053318;28;20446;-70
2023/09/11 07:51:02;;;;;;;24.60;21.93;;;22.40;99.90;;;;;;5053331;28;20458;-69
2023/09/11 07:53:30;;;;;;;22.97;16.30;;;22.50;99.90;;;;;;5053307;28;20813;-70
2023/09/11 07:55:57;;;;;;;20.50;12.40;;;22.70;99.90;;;;;;5053523;28;20457;-69
2023/09/11 07:58:24;;;;;;;13.67;10.50;;;22.90;99.90;;;;;;5053303;28;20745;-70
2023/09/11 08:00:51;;;;;;;15.60;10.37;;;23.30;99.90;;;;;;5053266;28;20487;-69
2023/09/11 08:03:19;;;;;;;15.63;8.73;;;23.60;99.90;;;;;;5053321;28;20450;-70
2023/09/11 08:05:46;;;;;;;16.43;10.07;;;23.90;99.90;;;;;;5053088;28;20451;-69
2023/09/11 08:08:13;;;;;;;17.03;10.03;;;24.20;99.90;;;;;;5052948;28;20454;-70
2023/09/11 08:10:40;;;;;;;18.53;9.40;;;24.60;99.90;;;;;;5052918;28;20459;-70
2023/09/11 08:13:07;;;;;;;17.37;9.13;;;24.80;99.90;;;;;;5053189;28;20822;-69
2023/09/11 08:15:33;;;;;;;24.13;10.03;;;25.20;99.90;;;;;;5053220;28;20458;-69
2023/09/11 08:18:00;;;;;;;21.73;9.30;;;25.40;99.80;;;;;;5052423;28;20451;-67
2023/09/11 08:20:28;;;;;;;19.47;12.10;;;25.70;97.40;;;;;;5052609;28;20478;-67
2023/09/11 08:22:57;;;;;;;17.63;9.77;;;26.10;97.50;;;;;;5053107;28;20422;-67
2023/09/11 08:25:24;;;;;;;17.73;10.53;;;26.10;97.60;;;;;;5052887;28;20455;-68
2023/09/11 08:27:51;;;;;;;15.70;8.67;;;26.10;94.10;;;;;;5052878;28;20454;-69
2023/09/11 08:30:18;;;;;;;26.67;10.77;;;26.30;94.10;;;;;;5052801;28;20432;-68
2023/09/11 08:32:45;;;;;;;24.83;11.40;;;26.70;90.80;;;;;;5052674;28;20454;-69
2023/09/11 08:35:12;;;;;;;20.40;10.30;;;26.80;82.90;;;;;;5052475;28;20451;-69
2023/09/11 08:37:40;;;;;;;14.70;9.13;;;27.00;80.20;;;;;;5052757;28;20447;-68
2023/09/11 08:40:08;;;;;;;16.57;9.30;;;27.20;76.20;;;;;;5052271;28;21016;-69
2023/09/11 08:42:35;;;;;;;23.30;9.70;;;27.50;68.10;;;;;;5050917;28;20451;-68
2023/09/11 08:45:02;;;;;;;16.63;9.23;;;27.60;65.70;;;;;;5052026;28;20460;-68
2023/09/11 08:47:31;;;;;;;16.80;8.23;;;27.80;68.30;;;;;;5044635;28;20451;-68
2023/09/11 08:50:04;;;;;;;20.87;10.80;;;28.10;60.10;;;;;;5039740;28;20419;-68
2023/09/11 08:52:32;;;;;;;16.63;8.40;;;28.30;51.40;;;;;;5032204;28;20452;-68
2023/09/11 08:55:04;;;;;;;18.43;9.20;;;28.70;51.70;;;;;;5032307;28;20517;-68
2023/09/11 08:57:33;;;;;;;18.73;8.50;;;29.00;51.90;;;;;;5032036;28;20448;-68
2023/09/11 09:00:08;;;;;;;20.83;9.20;;;29.30;45.40;;;;;;5031405;28;20450;-68
2023/09/11 09:02:36;;;;;;;22.03;8.87;;;29.70;43.20;;;;;;5031851;28;20452;-68
2023/09/11 09:05:06;;;;;;;14.77;8.80;;;29.80;34.10;;;;;;5031857;28;20466;-68
2023/09/11 09:07:33;;;;;;;20.80;8.40;;;30.00;36.50;;;;;;5032371;28;20474;-68
2023/09/11 09:10:03;;;;;;;24.80;9.60;;;30.00;34.20;;;;;;5031651;28;20452;-68
2023/09/11 09:12:30;;;;;;;19.33;8.10;;;30.40;28.10;;;;;;5032026;28;20473;-67
2023/09/11 09:14:58;;;;;;;23.70;10.88;;;30.50;26.30;;;;;;5030629;28;20920;-69
2023/09/11 09:17:24;;;;;;;15.57;8.70;;;30.60;20.40;;;;;;5031318;28;20201;-69
2023/09/11 09:19:51;;;;;;;16.20;8.80;;;31.00;19.30;;;;;;5030583;28;20443;-69
2023/09/11 09:22:18;;;;;;;18.63;8.03;;;31.50;19.40;;;;;;5031807;28;20452;-69
2023/09/11 09:24:51;;;;;;;22.40;9.80;;;31.80;19.50;;;;;;5031738;28;20422;-69
2023/09/11 09:27:20;;;;;;;16.27;9.07;;;31.90;11.90;;;;;;5031881;28;20452;-69
2023/09/11 09:29:48;;;;;;;15.10;8.10;;;32.40;12.20;;;;;;5033631;28;20821;-67
2023/09/11 09:32:16;;;;;;;17.53;7.63;;;32.60;9.70;;;;;;5036223;28;20813;-67
2023/09/11 09:34:50;;;;;;;14.93;8.30;;;32.70;4.50;;;;;;5036719;28;20455;-68
2023/09/11 09:37:19;;;;;;;22.30;7.80;;;33.10;1.00;;;;;;5036175;28;20425;-69
2023/09/11 09:39:48;;;;;;;16.27;7.87;;;33.10;1.00;;;;;;5035694;28;20454;-69
2023/09/11 09:42:15;;;;;;;16.33;7.63;;;33.50;1.00;;;;;;5036055;28;20538;-69
2023/09/11 09:44:46;;;;;;;16.80;7.77;;;33.50;1.00;;;;;;5036107;28;20790;-69
2023/09/11 09:47:15;;;;;;;15.27;7.83;;;33.20;1.00;;;;;;5036021;28;20422;-67
2023/09/11 09:49:46;;;;;;;17.02;8.30;;;33.40;1.00;;;;;;5034336;28;20555;-66
2023/09/11 09:52:13;;;;;;;14.30;8.10;;;33.30;1.00;;;;;;5037407;28;20216;-67
2023/09/11 09:54:46;;;;;;;16.43;7.10;;;33.20;1.00;;;;;;5035758;28;20506;-69
2023/09/11 09:57:14;;;;;;;22.90;8.37;;;33.40;1.00;;;;;;5035614;28;20539;-68
2023/09/11 09:59:46;;;;;;;12.40;7.33;;;33.50;1.00;;;;;;5035427;28;20451;-67
2023/09/11 10:02:13;;;;;;;13.30;7.47;;;33.70;1.00;;;;;;5036835;28;20442;-66
2023/09/11 10:04:40;;;;;;;16.23;8.57;;;33.90;1.00;;;;;;5035471;28;20422;-66
2023/09/11 10:07:08;;;;;;;19.30;7.50;;;34.00;1.00;;;;;;5035847;28;20547;-66
2023/09/11 10:09:35;;;;;;;17.73;8.53;;;34.20;1.00;;;;;;5035507;28;20448;-66
2023/09/11 10:12:04;;;;;;;14.57;7.80;;;34.50;1.00;;;;;;5036281;28;20464;-66
2023/09/11 10:14:31;;;;;;;16.17;6.10;;;34.80;1.00;;;;;;5035643;28;20448;-66
2023/09/11 10:17:00;;;;;;;12.77;7.83;;;34.70;1.00;;;;;;5035762;28;20986;-66
2023/09/11 10:19:30;;;;;;;11.27;7.67;;;35.10;1.00;;;;;;5035500;28;20448;-66
2023/09/11 10:21:58;;;;;;;14.60;5.73;;;35.10;1.00;;;;;;5036625;28;20816;-67
2023/09/11 10:24:25;;;;;;;19.33;6.53;;;35.50;1.00;;;;;;5035922;28;20429;-67
2023/09/11 10:26:56;;;;;;;13.50;6.93;;;35.70;1.00;;;;;;5035799;28;20819;-66
2023/09/11 10:29:39;;;;;;;14.47;7.10;;;35.90;1.00;;;;;;5035333;28;20498;-67
2023/09/11 10:32:15;;;;;;;13.30;7.23;;;36.00;1.00;;;;;;5036500;28;20760;-67
2023/09/11 10:34:42;;;;;;;17.03;7.80;;;35.90;1.00;;;;;;5035576;28;20451;-67
2023/09/11 10:37:09;;;;;;;13.50;6.57;;;36.10;1.00;;;;;;5035556;28;20806;-67
2023/09/11 10:39:37;;;;;;;20.07;7.77;;;36.00;1.00;;;;;;5035010;28;20830;-67
2023/09/11 10:42:05;;;;;;;15.03;5.87;;;35.80;1.00;;;;;;5035693;28;20977;-66
2023/09/11 10:44:37;;;;;;;15.30;6.57;;;36.10;1.00;;;;;;5035505;28;20429;-64
2023/09/11 10:47:05;;;;;;;14.33;7.27;;;36.10;1.00;;;;;;5035344;28;20422;-64
2023/09/11 10:49:37;;;;;;;18.10;6.67;;;36.40;1.00;;;;;;5035030;28;20933;-64
2023/09/11 10:52:06;;;;;;;12.50;6.17;;;37.00;1.00;;;;;;5036265;28;20444;-64
2023/09/11 10:54:34;;;;;;;13.13;6.50;;;36.60;1.00;;;;;;5035075;28;20452;-65
2023/09/11 10:57:01;;;;;;;14.00;6.77;;;36.50;1.00;;;;;;5035381;28;20450;-63
2023/09/11 10:59:29;;;;;;;18.97;7.50;;;36.50;1.00;;;;;;5034917;28;20441;-63
2023/09/11 11:01:58;;;;;;;17.93;6.80;;;36.50;1.00;;;;;;5035717;28;20451;-63
2023/09/11 11:04:25;;;;;;;16.70;7.13;;;36.90;1.00;;;;;;5034993;28;20990;-64
2023/09/11 11:06:57;;;;;;;18.10;7.27;;;36.70;1.00;;;;;;5034863;28;20446;-64
2023/09/11 11:09:26;;;;;;;9.97;5.93;;;37.00;1.00;;;;;;5034509;28;20437;-64
2023/09/11 11:11:56;;;;;;;14.00;6.67;;;37.80;1.00;;;;;;5035464;28;20466;-64
2023/09/11 11:14:23;;;;;;;22.83;7.83;;;37.70;1.00;;;;;;5034765;28;20456;-64
2023/09/11 11:17:00;;;;;;;13.07;6.50;;;37.30;1.00;;;;;;5034703;28;20452;-64
2023/09/11 11:19:28;;;;;;;12.20;6.70;;;36.90;1.00;;;;;;5034806;28;20940;-64
2023/09/11 11:21:57;;;;;;;14.63;6.17;;;36.70;1.00;;;;;;5034975;28;20533;-64
2023/09/11 11:24:25;;;;;;;17.37;7.50;;;37.00;1.00;;;;;;5034800;28;20423;-64
2023/09/11 11:26:56;;;;;;;15.30;6.60;;;37.50;1.00;;;;;;5034601;28;20451;-64
2023/09/11 11:29:23;;;;;;;15.93;6.50;;;37.80;1.00;;;;;;5034478;28;20506;-64
2023/09/11 11:31:54;;;;;;;13.97;7.10;;;37.70;1.00;;;;;;5034997;28;20451;-64
2023/09/11 11:34:27;;;;;;;13.33;6.40;;;37.10;1.00;;;;;;5034834;28;20942;-64
2023/09/11 11:36:57;;;;;;;14.73;5.73;;;37.40;1.00;;;;;;5034272;28;20538;-64
2023/09/11 11:39:27;;;;;;;14.57;7.10;;;37.90;1.00;;;;;;5033825;28;20422;-64
2023/09/11 11:41:54;;;;;;;13.80;6.30;;;38.00;1.00;;;;;;5034917;28;20482;-64
2023/09/11 11:44:22;;;;;;;12.60;6.37;;;38.10;1.00;;;;;;5034524;28;20898;-64
2023/09/11 11:46:49;;;;;;;13.57;7.00;;;39.00;1.00;;;;;;5034294;28;20458;-64
2023/09/11 11:49:19;;;;;;;16.43;7.17;;;38.60;1.00;;;;;;5034342;28;20433;-65
2023/09/11 11:51:47;;;;;;;9.60;6.10;;;38.20;1.00;;;;;;5033990;28;20486;-64
2023/09/11 11:54:25;;;;;;;13.67;7.63;;;38.30;1.00;;;;;;5033903;28;20800;-64
2023/09/11 11:56:56;;;;;;;9.23;6.60;;;38.50;1.00;;;;;;5033720;28;20422;-64
2023/09/11 11:59:29;;;;;;;10.90;6.37;;;39.20;1.00;;;;;;5033292;28;20426;-64
2023/09/11 12:01:55;;;;;;;9.73;5.93;;;39.30;1.00;;;;;;5034478;28;20987;-64
2023/09/11 12:04:24;;;;;;;13.10;6.70;;;39.30;1.00;;;;;;5033790;28;20477;-64
2023/09/11 12:06:53;;;;;;;14.43;6.30;;;39.30;1.00;;;;;;5032984;28;20448;-67
2023/09/11 12:09:20;;;;;;;13.67;6.37;;;38.60;1.00;;;;;;5044662;28;20913;-66
2023/09/11 12:11:50;;;;;;;14.30;5.70;;;38.70;1.00;;;;;;5053686;28;20429;-67
2023/09/11 12:14:18;;;;;;;11.97;6.23;;;38.80;1.00;;;;;;5053598;28;20451;-66
2023/09/11 12:16:45;;;;;;;10.93;6.47;;;38.40;1.00;;;;;;5052454;28;21130;-67
2023/09/11 12:19:13;;;;;;;10.97;6.23;;;37.90;1.00;;;;;;5052134;28;20468;-68
2023/09/11 12:21:41;;;;;;;11.77;5.70;;;38.60;1.00;;;;;;5053835;28;20418;-68
2023/09/11 12:24:09;;;;;;;11.67;6.77;;;39.10;1.00;;;;;;5053103;28;20446;-68
2023/09/11 12:26:37;;;;;;;15.17;6.47;;;38.40;1.00;;;;;;5052419;28;20451;-68